Wetterdaten: aktuell Freitag, 09.06.2023 14:10
Datum Zeit Temp. A. Feuchte A. Luftdruck Regen Wind Taupunkt Windchill Windben
09.06.2023 14:10 24,3 C 46 % 1012,5 hPa 0,0 l/m 14,3 km/h (3 Bft) 11,9 C 22,6 C 33,8 km/h (5 Bft)
09.06.2023 14:00 25,8 C 43 % 1012,3 hPa 0,0 l/m 11,5 km/h (2 Bft) 12,3 C 24,8 C 29,0 km/h (5 Bft)
09.06.2023 13:50 26,5 C 46 % 1012,1 hPa 0,0 l/m 2,9 km/h (1 Bft) 13,9 C 26,5 C 8,0 km/h (2 Bft)
09.06.2023 13:40 26,2 C 46 % 1012,2 hPa 0,0 l/m 1,9 km/h (1 Bft) 13,6 C 26,2 C 8,0 km/h (2 Bft)
09.06.2023 13:30 25,9 C 47 % 1012,3 hPa 0,0 l/m 4,1 km/h (1 Bft) 13,7 C 25,9 C 14,5 km/h (3 Bft)
09.06.2023 13:20 25,7 C 47 % 1012,3 hPa 0,0 l/m 4,3 km/h (1 Bft) 13,5 C 25,7 C 11,3 km/h (2 Bft)
09.06.2023 13:10 25,6 C 47 % 1012,6 hPa 0,0 l/m 4,4 km/h (1 Bft) 13,4 C 25,6 C 9,7 km/h (2 Bft)
09.06.2023 13:00 25,4 C 49 % 1012,6 hPa 0,0 l/m 3,0 km/h (1 Bft) 13,9 C 25,4 C 6,4 km/h (2 Bft)
09.06.2023 12:50 25,2 C 51 % 1012,7 hPa 0,0 l/m 3,4 km/h (1 Bft) 14,3 C 25,2 C 11,3 km/h (2 Bft)
09.06.2023 12:40 24,8 C 48 % 1012,8 hPa 0,0 l/m 3,8 km/h (1 Bft) 13,0 C 24,8 C 9,7 km/h (2 Bft)
09.06.2023 12:30 24,7 C 49 % 1012,8 hPa 0,0 l/m 3,5 km/h (1 Bft) 13,3 C 24,7 C 8,0 km/h (2 Bft)
09.06.2023 12:20 24,3 C 53 % 1012,9 hPa 0,0 l/m 2,1 km/h (1 Bft) 14,1 C 24,3 C 6,4 km/h (2 Bft)
09.06.2023 12:10 23,9 C 49 % 1012,9 hPa 0,0 l/m 2,0 km/h (1 Bft) 12,5 C 23,9 C 8,0 km/h (2 Bft)
09.06.2023 12:00 23,6 C 54 % 1013,0 hPa 0,0 l/m 3,1 km/h (1 Bft) 13,7 C 23,6 C 11,3 km/h (2 Bft)
09.06.2023 11:50 23,3 C 54 % 1013,1 hPa 0,0 l/m 3,5 km/h (1 Bft) 13,5 C 23,3 C 11,3 km/h (2 Bft)
09.06.2023 11:40 22,9 C 61 % 1013,2 hPa 0,0 l/m 2,0 km/h (1 Bft) 15,0 C 22,9 C 6,4 km/h (2 Bft)
09.06.2023 11:30 22,7 C 73 % 1013,3 hPa 0,0 l/m 4,0 km/h (1 Bft) 17,6 C 22,7 C 12,9 km/h (3 Bft)
09.06.2023 11:20 22,2 C 70 % 1013,4 hPa 0,0 l/m 2,7 km/h (1 Bft) 16,5 C 22,2 C 9,7 km/h (2 Bft)
09.06.2023 11:10 21,7 C 71 % 1013,3 hPa 0,0 l/m 3,0 km/h (1 Bft) 16,2 C 21,7 C 8,0 km/h (2 Bft)
09.06.2023 11:00 21,3 C 73 % 1013,4 hPa 0,0 l/m 2,0 km/h (1 Bft) 16,3 C 21,3 C 8,0 km/h (2 Bft)
09.06.2023 10:50 20,8 C 75 % 1013,5 hPa 0,0 l/m 3,7 km/h (1 Bft) 16,2 C 20,8 C 11,3 km/h (2 Bft)
_ Min-Zeit 04:00 14:00 13:50 - 00:00 04:00 04:00 00:00
Minimum _ 11,8 C 43 % 1012,1 hPa - 0,0 km/h (0 Bft) 11,0 C 11,8 C 0,0 km/h (0 Bft)
_ Max-Zeit 13:50 07:20 08:10 00:00 14:10 11:30 13:50 14:10
Maximum _ 26,5 C 97 % 1013,7 hPa 0,0 l/m 14,3 km/h
O-NO (3 Bft)
17,6 C 26,5 C 33,8 km/h
O (5 Bft)
Durchschnitt _ 16,2 C 84 % 1013,3 hPa #0,0 l/m 1,3 km/h (1 Bft) 13,0 C 16,2 C 3,7 km/h (1 Bft)